createdAt,value
2019-04-01T00:00:33.364Z,36.90
2019-04-01T00:03:10.478Z,36.90
2019-04-01T00:05:47.244Z,36.90
2019-04-01T00:08:24.145Z,36.90
2019-04-01T00:11:00.732Z,36.90
2019-04-01T00:13:37.242Z,37.00
2019-04-01T00:16:13.342Z,37.10
2019-04-01T00:19:02.345Z,37.00
2019-04-01T00:21:28.235Z,37.00
2019-04-01T00:24:04.564Z,37.70
2019-04-01T00:26:40.911Z,37.00
2019-04-01T00:29:16.724Z,37.00
2019-04-01T00:31:52.930Z,37.00
2019-04-01T00:34:29.636Z,37.00
2019-04-01T00:37:05.687Z,37.00
2019-04-01T00:39:42.382Z,37.00
2019-04-01T00:42:24.124Z,37.10
2019-04-01T00:45:01.039Z,37.00
2019-04-01T00:47:37.326Z,37.10
2019-04-01T00:50:14.223Z,37.10
2019-04-01T00:52:50.245Z,37.20
2019-04-01T00:55:26.487Z,37.00
2019-04-01T00:58:02.791Z,37.00
2019-04-01T01:00:39.868Z,36.90
2019-04-01T01:03:16.072Z,36.90
2019-04-01T01:05:53.454Z,36.90
2019-04-01T01:08:30.421Z,36.90
2019-04-01T01:11:07.797Z,36.90
2019-04-01T01:13:44.136Z,36.80
2019-04-01T01:16:21.088Z,36.90
2019-04-01T01:18:57.400Z,36.90
2019-04-01T01:21:34.459Z,36.80
2019-04-01T01:24:10.972Z,36.80
2019-04-01T01:26:47.022Z,36.70
2019-04-01T01:29:23.763Z,36.80
2019-04-01T01:32:00.528Z,36.80
2019-04-01T01:34:37.217Z,36.90
2019-04-01T01:37:14.136Z,36.70
2019-04-01T01:39:50.864Z,36.80
2019-04-01T01:42:27.282Z,36.70
2019-04-01T01:45:03.110Z,36.70
2019-04-01T01:47:40.192Z,36.70
2019-04-01T01:50:16.093Z,36.70
2019-04-01T01:52:51.828Z,36.70
2019-04-01T01:55:28.630Z,36.70
2019-04-01T01:58:05.095Z,36.70
2019-04-01T02:00:42.418Z,36.60
2019-04-01T02:03:18.303Z,36.60
2019-04-01T02:05:54.836Z,36.60
2019-04-01T02:08:30.952Z,36.70
2019-04-01T02:11:07.066Z,36.60
2019-04-01T02:13:43.546Z,36.70
2019-04-01T02:16:20.100Z,36.70
2019-04-01T02:18:56.169Z,36.60
2019-04-01T02:21:31.823Z,36.60
2019-04-01T02:24:08.221Z,36.60
2019-04-01T02:26:44.738Z,36.70
2019-04-01T02:29:20.921Z,36.60
2019-04-01T02:31:58.097Z,36.60
2019-04-01T02:34:35.084Z,36.60
2019-04-01T02:37:11.942Z,36.60
2019-04-01T02:39:48.361Z,36.60
2019-04-01T02:42:24.723Z,36.60
2019-04-01T02:45:00.968Z,36.60
2019-04-01T02:47:36.863Z,36.60
2019-04-01T02:50:13.338Z,36.60
2019-04-01T02:52:50.158Z,36.60
2019-04-01T02:55:27.775Z,36.50
2019-04-01T02:58:04.070Z,36.60
2019-04-01T03:00:40.718Z,36.50
2019-04-01T03:03:18.510Z,36.50
2019-04-01T03:05:55.579Z,36.50
2019-04-01T03:08:31.511Z,36.50
2019-04-01T03:11:10.643Z,36.50
2019-04-01T03:13:45.797Z,36.50
2019-04-01T03:16:21.665Z,36.50
2019-04-01T03:18:57.982Z,36.50
2019-04-01T03:21:34.482Z,36.50
2019-04-01T03:24:10.390Z,36.40
2019-04-01T03:26:46.474Z,36.50
2019-04-01T03:29:22.967Z,36.50
2019-04-01T03:32:00.154Z,37.00
2019-04-01T03:34:36.379Z,36.40
2019-04-01T03:37:13.477Z,36.50
2019-04-01T03:39:50.268Z,36.40
2019-04-01T03:42:27.234Z,36.40
2019-04-01T03:45:03.153Z,36.50
2019-04-01T03:47:39.405Z,36.40
2019-04-01T03:50:15.621Z,36.40
2019-04-01T03:52:53.180Z,36.40
2019-04-01T03:55:29.079Z,36.40
2019-04-01T03:58:05.457Z,36.40
2019-04-01T04:00:42.429Z,36.50
2019-04-01T04:03:19.137Z,36.40
2019-04-01T04:05:57.369Z,36.40
2019-04-01T04:08:33.688Z,36.40
2019-04-01T04:11:09.909Z,36.40
2019-04-01T04:13:47.153Z,36.40
2019-04-01T04:16:23.070Z,36.40
2019-04-01T04:18:59.849Z,36.40
2019-04-01T04:21:36.171Z,36.40
2019-04-01T04:24:12.789Z,36.40
2019-04-01T04:26:49.561Z,36.40
2019-04-01T04:29:26.877Z,36.40
2019-04-01T04:32:05.009Z,36.40
2019-04-01T04:34:41.875Z,36.30
2019-04-01T04:37:18.593Z,36.40
2019-04-01T04:39:55.239Z,36.40
2019-04-01T04:42:31.136Z,36.30
2019-04-01T04:45:07.239Z,36.30
2019-04-01T04:47:43.434Z,36.30
2019-04-01T04:50:20.670Z,36.30
2019-04-01T04:52:57.126Z,36.30
2019-04-01T04:55:33.930Z,36.30
2019-04-01T04:58:10.309Z,36.40
2019-04-01T05:00:46.948Z,36.40
2019-04-01T05:03:23.527Z,36.60
2019-04-01T05:06:00.772Z,36.70
2019-04-01T05:08:38.464Z,36.80
2019-04-01T05:11:15.298Z,36.90
2019-04-01T05:13:51.821Z,37.10
2019-04-01T05:16:27.528Z,37.50
2019-04-01T05:19:04.586Z,37.10
2019-04-01T05:21:41.833Z,38.10
2019-04-01T05:24:19.120Z,37.90
2019-04-01T05:26:57.263Z,40.60
2019-04-01T05:29:34.166Z,39.00
2019-04-01T05:32:13.904Z,39.30
2019-04-01T05:34:51.565Z,39.50
2019-04-01T05:37:28.314Z,38.70
2019-04-01T05:40:05.489Z,38.10
2019-04-01T05:42:42.141Z,37.90
2019-04-01T05:45:19.173Z,37.90
2019-04-01T05:47:55.996Z,37.90
2019-04-01T05:50:32.222Z,37.70
2019-04-01T05:53:08.648Z,37.80
2019-04-01T05:55:45.176Z,37.50
2019-04-01T05:58:22.477Z,36.30
2019-04-01T06:01:05.004Z,35.10
2019-04-01T06:03:41.340Z,33.90
2019-04-01T06:06:17.299Z,34.60
2019-04-01T06:08:54.585Z,34.60
2019-04-01T06:11:31.032Z,34.90
2019-04-01T06:14:07.369Z,35.00
2019-04-01T06:16:43.854Z,35.50
2019-04-01T06:19:20.345Z,35.50
2019-04-01T06:21:56.817Z,35.60
2019-04-01T06:24:34.221Z,35.60
2019-04-01T06:27:11.717Z,36.00
2019-04-01T06:29:48.625Z,36.40
2019-04-01T06:32:24.909Z,36.80
2019-04-01T06:35:01.866Z,36.40
2019-04-01T06:37:37.873Z,36.50
2019-04-01T06:40:14.704Z,36.50
2019-04-01T06:42:50.697Z,36.60
2019-04-01T06:45:27.837Z,36.50
2019-04-01T06:48:04.299Z,36.40
2019-04-01T06:50:40.588Z,36.10
2019-04-01T06:53:16.920Z,36.10
2019-04-01T06:55:53.620Z,35.90
2019-04-01T06:58:29.942Z,35.90
2019-04-01T07:01:06.572Z,35.90
2019-04-01T07:03:42.856Z,35.90
2019-04-01T07:06:20.024Z,35.90
2019-04-01T07:08:56.418Z,36.00
2019-04-01T07:11:32.855Z,36.00
2019-04-01T07:14:10.161Z,35.90
2019-04-01T07:16:46.558Z,35.90
2019-04-01T07:19:22.709Z,36.00
2019-04-01T07:21:59.502Z,36.00
2019-04-01T07:24:36.067Z,36.00
2019-04-01T07:27:12.103Z,35.90
2019-04-01T07:29:47.938Z,36.40
2019-04-01T07:32:26.718Z,35.80
2019-04-01T07:35:03.242Z,35.70
2019-04-01T07:37:39.511Z,35.80
2019-04-01T07:40:15.357Z,36.10
2019-04-01T07:42:53.754Z,36.10
2019-04-01T07:45:30.759Z,35.40
2019-04-01T07:48:07.348Z,33.60
2019-04-01T07:50:43.447Z,32.50
2019-04-01T07:53:19.580Z,31.60
2019-04-01T07:55:55.612Z,30.90
2019-04-01T07:58:32.212Z,31.40
2019-04-01T08:01:08.093Z,30.10
2019-04-01T08:03:44.460Z,29.90
2019-04-01T08:06:20.740Z,30.00
2019-04-01T08:08:57.429Z,30.50
2019-04-01T08:11:33.399Z,30.70
2019-04-01T08:14:10.029Z,30.90
2019-04-01T08:16:46.947Z,31.10
2019-04-01T08:19:23.633Z,31.50
2019-04-01T08:21:59.705Z,30.80
2019-04-01T08:24:35.456Z,30.70
2019-04-01T08:27:12.011Z,30.70
2019-04-01T08:29:48.581Z,30.80
2019-04-01T08:32:25.588Z,30.60
2019-04-01T08:35:03.135Z,30.40
2019-04-01T08:37:40.498Z,30.30
2019-04-01T08:40:18.293Z,30.40
2019-04-01T08:42:55.139Z,30.00
2019-04-01T08:45:32.050Z,30.20
2019-04-01T08:48:08.121Z,30.00
2019-04-01T08:50:45.604Z,30.10
2019-04-01T08:53:22.217Z,30.10
2019-04-01T08:56:00.942Z,30.00
2019-04-01T08:58:38.515Z,29.90
2019-04-01T09:01:15.511Z,29.90
2019-04-01T09:03:52.202Z,30.00
2019-04-01T09:06:31.326Z,29.90
2019-04-01T09:09:08.009Z,30.00
2019-04-01T09:11:44.838Z,29.90
2019-04-01T09:14:21.977Z,30.00
2019-04-01T09:16:58.568Z,29.90
2019-04-01T09:19:35.474Z,30.00
2019-04-01T09:22:11.716Z,30.00
2019-04-01T09:24:48.014Z,29.80
2019-04-01T09:27:24.417Z,29.80
2019-04-01T09:30:00.694Z,29.80
2019-04-01T09:32:38.559Z,29.40
2019-04-01T09:35:15.530Z,29.70
2019-04-01T09:37:51.285Z,29.60
2019-04-01T09:40:28.130Z,29.70
2019-04-01T09:43:04.809Z,29.40
2019-04-01T09:45:41.302Z,29.30
2019-04-01T09:48:18.586Z,29.40
2019-04-01T09:50:55.305Z,29.40
2019-04-01T09:53:32.344Z,29.20
2019-04-01T09:56:08.196Z,29.10
2019-04-01T09:58:45.052Z,29.20
2019-04-01T10:01:21.437Z,29.20
2019-04-01T10:03:57.920Z,29.10
2019-04-01T10:06:34.446Z,29.00
2019-04-01T10:09:11.678Z,29.30
2019-04-01T10:11:48.186Z,28.90
2019-04-01T10:14:24.424Z,28.90
2019-04-01T10:17:01.086Z,28.80
2019-04-01T10:19:37.321Z,29.10
2019-04-01T10:22:14.671Z,28.90
2019-04-01T10:24:51.786Z,29.70
2019-04-01T10:27:28.299Z,29.50
2019-04-01T10:30:07.109Z,29.90
2019-04-01T10:32:43.565Z,29.90
2019-04-01T10:35:20.400Z,30.20
2019-04-01T10:37:56.653Z,30.00
2019-04-01T10:40:33.649Z,30.40
2019-04-01T10:43:10.241Z,30.70
2019-04-01T10:45:47.071Z,30.70
2019-04-01T10:48:23.545Z,30.30
2019-04-01T10:50:59.765Z,30.50
2019-04-01T10:53:35.903Z,30.20
2019-04-01T10:56:12.231Z,30.90
2019-04-01T10:58:48.339Z,31.40
2019-04-01T11:01:25.369Z,31.00
2019-04-01T11:04:02.842Z,31.40
2019-04-01T11:06:39.005Z,30.90
2019-04-01T11:09:15.561Z,31.10
2019-04-01T11:11:52.196Z,31.10
2019-04-01T11:14:29.226Z,31.20
2019-04-01T11:17:05.625Z,31.30
2019-04-01T11:19:42.049Z,31.70
2019-04-01T11:22:18.434Z,32.10
2019-04-01T11:24:54.817Z,32.20
2019-04-01T11:27:31.300Z,32.10
2019-04-01T11:30:08.636Z,32.20
2019-04-01T11:32:46.096Z,31.90
2019-04-01T11:35:22.385Z,31.80
2019-04-01T11:37:58.675Z,31.90
2019-04-01T11:40:37.034Z,32.10
2019-04-01T11:43:13.243Z,32.00
2019-04-01T11:45:49.782Z,32.80
2019-04-01T11:48:26.320Z,31.40
2019-04-01T11:51:02.376Z,32.00
2019-04-01T11:53:39.109Z,32.30
2019-04-01T11:56:15.472Z,32.20
2019-04-01T11:58:52.077Z,32.20
2019-04-01T12:01:28.063Z,32.20
2019-04-01T12:04:04.536Z,32.10
2019-04-01T12:06:40.837Z,32.20
2019-04-01T12:09:17.014Z,32.60
2019-04-01T12:11:53.815Z,32.60
2019-04-01T12:14:29.510Z,32.40
2019-04-01T12:17:05.955Z,32.70
2019-04-01T12:19:42.795Z,32.80
2019-04-01T12:22:19.904Z,32.70
2019-04-01T12:24:56.080Z,32.60
2019-04-01T12:27:31.854Z,32.60
2019-04-01T12:30:08.485Z,32.50
2019-04-01T12:32:44.813Z,32.70
2019-04-01T12:35:21.525Z,32.50
2019-04-01T12:37:57.556Z,32.50
2019-04-01T12:40:34.016Z,32.50
2019-04-01T12:43:09.875Z,32.30
2019-04-01T12:45:46.157Z,32.50
2019-04-01T12:48:25.432Z,31.90
2019-04-01T12:51:01.044Z,32.40
2019-04-01T12:53:37.941Z,31.70
2019-04-01T12:56:15.216Z,31.80
2019-04-01T12:58:52.460Z,32.30
2019-04-01T13:01:28.879Z,32.30
2019-04-01T13:04:05.176Z,32.30
2019-04-01T13:06:42.585Z,32.40
2019-04-01T13:09:19.188Z,33.00
2019-04-01T13:11:55.762Z,32.20
2019-04-01T13:14:31.633Z,32.10
2019-04-01T13:17:08.490Z,32.20
2019-04-01T13:19:45.128Z,32.10
2019-04-01T13:22:21.823Z,32.00
2019-04-01T13:24:58.148Z,32.00
2019-04-01T13:27:33.911Z,31.80
2019-04-01T13:30:11.006Z,31.90
2019-04-01T13:32:48.143Z,31.40
2019-04-01T13:35:25.370Z,31.90
2019-04-01T13:38:02.474Z,32.00
2019-04-01T13:40:39.563Z,31.80
2019-04-01T13:43:17.113Z,31.90
2019-04-01T13:45:53.425Z,31.90
2019-04-01T13:48:29.833Z,31.90
2019-04-01T13:51:06.221Z,31.90
2019-04-01T13:53:41.986Z,32.00
2019-04-01T13:56:18.910Z,32.00
2019-04-01T13:58:55.243Z,32.10
2019-04-01T14:01:31.317Z,32.00
2019-04-01T14:04:08.117Z,32.00
2019-04-01T14:06:44.532Z,32.00
2019-04-01T14:09:21.373Z,32.00
2019-04-01T14:11:57.469Z,32.00
2019-04-01T14:14:34.620Z,31.90
2019-04-01T14:17:11.179Z,32.00
2019-04-01T14:19:47.339Z,31.70
2019-04-01T14:22:24.308Z,31.90
2019-04-01T14:25:00.302Z,32.00
2019-04-01T14:27:36.193Z,32.00
2019-04-01T14:30:13.178Z,32.00
2019-04-01T14:32:49.451Z,31.90
2019-04-01T14:35:26.652Z,32.00
2019-04-01T14:38:02.803Z,31.90
2019-04-01T14:40:39.238Z,32.00
2019-04-01T14:43:16.036Z,32.00
2019-04-01T14:45:51.928Z,32.00
2019-04-01T14:48:27.689Z,32.00
2019-04-01T14:51:04.890Z,32.00
2019-04-01T14:53:42.675Z,32.00
2019-04-01T14:56:19.064Z,31.90
2019-04-01T14:58:55.777Z,32.00
2019-04-01T15:01:32.512Z,32.00
2019-04-01T15:04:09.091Z,31.90
2019-04-01T15:06:46.530Z,32.20
2019-04-01T15:09:23.660Z,31.90
2019-04-01T15:11:59.843Z,31.90
2019-04-01T15:14:35.547Z,31.90
2019-04-01T15:17:13.551Z,32.00
2019-04-01T15:19:49.653Z,31.90
2019-04-01T15:22:27.230Z,32.20
2019-04-01T15:25:04.224Z,32.10
2019-04-01T15:27:40.202Z,31.70
2019-04-01T15:30:16.636Z,31.80
2019-04-01T15:32:53.238Z,31.90
2019-04-01T15:35:29.891Z,32.00
2019-04-01T15:38:06.851Z,31.90
2019-04-01T15:40:43.585Z,31.90
2019-04-01T15:43:19.834Z,31.90
2019-04-01T15:45:56.295Z,32.40
2019-04-01T15:48:32.699Z,31.80
2019-04-01T15:51:08.416Z,31.70
2019-04-01T15:53:45.855Z,31.80
2019-04-01T15:56:21.844Z,31.80
2019-04-01T15:58:57.870Z,31.90
2019-04-01T16:01:33.912Z,31.90
2019-04-01T16:04:10.325Z,32.70
2019-04-01T16:06:46.376Z,32.00
2019-04-01T16:09:23.258Z,32.10
2019-04-01T16:12:00.103Z,32.00
2019-04-01T16:14:36.028Z,31.90
2019-04-01T16:17:11.968Z,31.70
2019-04-01T16:19:48.356Z,31.80
2019-04-01T16:22:24.668Z,31.70
2019-04-01T16:25:02.483Z,31.80
2019-04-01T16:27:38.785Z,32.50
2019-04-01T16:30:15.942Z,31.90
2019-04-01T16:32:52.758Z,31.80
2019-04-01T16:35:30.564Z,31.70
2019-04-01T16:38:07.851Z,31.70
2019-04-01T16:40:44.876Z,31.70
2019-04-01T16:43:22.546Z,32.50
2019-04-01T16:46:00.385Z,31.90
2019-04-01T16:48:38.304Z,31.80
2019-04-01T16:51:15.784Z,31.80
2019-04-01T16:53:55.849Z,31.70
2019-04-01T16:56:30.965Z,32.10
2019-04-01T16:59:07.342Z,33.60
2019-04-01T17:01:43.458Z,34.40
2019-04-01T17:04:19.756Z,32.60
2019-04-01T17:06:56.544Z,32.10
2019-04-01T17:09:33.799Z,34.90
2019-04-01T17:12:10.688Z,36.80
2019-04-01T17:14:48.443Z,35.90
2019-04-01T17:17:24.999Z,34.40
2019-04-01T17:20:01.548Z,34.00
2019-04-01T17:22:39.055Z,33.50
2019-04-01T17:25:15.738Z,32.90
2019-04-01T17:27:52.234Z,32.90
2019-04-01T17:30:28.941Z,32.90
2019-04-01T17:33:08.403Z,32.90
2019-04-01T17:35:43.877Z,32.90
2019-04-01T17:38:20.918Z,32.90
2019-04-01T17:40:57.548Z,33.30
2019-04-01T17:43:34.099Z,32.80
2019-04-01T17:46:10.532Z,32.50
2019-04-01T17:48:46.784Z,32.00
2019-04-01T17:51:22.903Z,32.60
2019-04-01T17:54:01.018Z,32.60
2019-04-01T17:56:37.613Z,32.70
2019-04-01T17:59:15.451Z,32.70
2019-04-01T18:01:52.379Z,32.60
2019-04-01T18:04:28.886Z,32.70
2019-04-01T18:07:05.126Z,32.70
2019-04-01T18:09:41.495Z,32.60
2019-04-01T18:12:17.341Z,32.80
2019-04-01T18:14:54.042Z,32.60
2019-04-01T18:17:29.865Z,32.60
2019-04-01T18:20:06.393Z,32.50
2019-04-01T18:22:42.542Z,32.50
2019-04-01T18:25:20.977Z,32.70
2019-04-01T18:27:57.274Z,32.60
2019-04-01T18:30:35.065Z,32.60
2019-04-01T18:33:11.266Z,32.70
2019-04-01T18:35:48.458Z,32.80
2019-04-01T18:38:24.773Z,32.70
2019-04-01T18:41:01.236Z,32.90
2019-04-01T18:43:37.496Z,33.00
2019-04-01T18:46:13.915Z,33.10
2019-04-01T18:48:50.468Z,33.10
2019-04-01T18:51:26.621Z,33.20
2019-04-01T18:54:03.172Z,33.30
2019-04-01T18:56:39.380Z,33.40
2019-04-01T18:59:16.312Z,33.40
2019-04-01T19:01:55.381Z,33.40
2019-04-01T19:04:34.183Z,33.40
2019-04-01T19:07:10.677Z,33.50
2019-04-01T19:09:49.903Z,33.50
2019-04-01T19:12:26.102Z,33.50
2019-04-01T19:15:02.924Z,33.60
2019-04-01T19:17:39.871Z,33.60
2019-04-01T19:20:16.237Z,33.60
2019-04-01T19:22:52.235Z,33.70
2019-04-01T19:25:28.717Z,33.70
2019-04-01T19:28:05.876Z,33.70
2019-04-01T19:30:43.162Z,33.70
2019-04-01T19:33:19.856Z,33.70
2019-04-01T19:35:56.414Z,33.80
2019-04-01T19:38:33.452Z,33.80
2019-04-01T19:41:09.766Z,33.80
2019-04-01T19:43:46.470Z,33.80
2019-04-01T19:46:22.589Z,33.90
2019-04-01T19:49:00.182Z,33.90
2019-04-01T19:51:37.593Z,33.90
2019-04-01T19:54:14.130Z,33.90
2019-04-01T19:56:51.041Z,34.00
2019-04-01T19:59:27.538Z,34.00
2019-04-01T20:02:04.071Z,34.10
2019-04-01T20:04:40.673Z,34.00
2019-04-01T20:07:17.703Z,34.00
2019-04-01T20:09:54.902Z,34.00
2019-04-01T20:12:31.245Z,34.00
2019-04-01T20:15:09.522Z,34.10
2019-04-01T20:17:46.960Z,34.10
2019-04-01T20:20:23.598Z,34.10
2019-04-01T20:23:00.326Z,34.10
2019-04-01T20:25:38.401Z,34.10
2019-04-01T20:28:15.289Z,34.20
2019-04-01T20:30:51.940Z,34.20
2019-04-01T20:33:31.651Z,34.20
2019-04-01T20:36:07.180Z,34.20
2019-04-01T20:38:44.014Z,34.30
2019-04-01T20:41:21.190Z,34.30
2019-04-01T20:43:57.893Z,34.40
2019-04-01T20:46:35.197Z,34.50
2019-04-01T20:49:11.460Z,34.50
2019-04-01T20:51:48.313Z,34.50
2019-04-01T20:54:25.081Z,34.40
2019-04-01T20:57:01.069Z,34.40
2019-04-01T20:59:37.126Z,34.50
2019-04-01T21:02:13.740Z,34.50
2019-04-01T21:04:49.723Z,34.50
2019-04-01T21:07:26.251Z,34.50
2019-04-01T21:10:03.463Z,34.50
2019-04-01T21:12:39.950Z,34.50
2019-04-01T21:15:16.677Z,34.50
2019-04-01T21:17:54.973Z,34.50
2019-04-01T21:20:31.328Z,34.50
2019-04-01T21:23:08.457Z,34.00
2019-04-01T21:25:45.073Z,34.50
2019-04-01T21:28:23.896Z,34.50
2019-04-01T21:31:00.402Z,34.60
2019-04-01T21:33:38.451Z,34.50
2019-04-01T21:36:16.081Z,34.50
2019-04-01T21:38:54.485Z,34.60
2019-04-01T21:41:34.178Z,34.50
2019-04-01T21:44:11.612Z,34.60
2019-04-01T21:46:49.005Z,34.60
2019-04-01T21:49:25.436Z,34.60
2019-04-01T21:52:02.222Z,34.60
2019-04-01T21:54:38.601Z,34.50
2019-04-01T21:57:14.458Z,34.60
2019-04-01T21:59:50.825Z,34.60
2019-04-01T22:02:35.807Z,34.60
2019-04-01T22:05:09.221Z,34.60
2019-04-01T22:07:47.733Z,34.60
2019-04-01T22:10:26.780Z,34.80
2019-04-01T22:13:02.942Z,34.70
2019-04-01T22:15:39.816Z,34.60
2019-04-01T22:18:16.457Z,34.60
2019-04-01T22:20:53.257Z,34.60
2019-04-01T22:23:29.263Z,34.70
2019-04-01T22:26:05.022Z,34.70
2019-04-01T22:28:41.613Z,34.60
2019-04-01T22:31:19.749Z,34.70
2019-04-01T22:33:55.711Z,34.70
2019-04-01T22:36:33.388Z,34.70
2019-04-01T22:39:10.335Z,34.70
2019-04-01T22:41:48.926Z,34.70
2019-04-01T22:44:25.603Z,34.70
2019-04-01T22:47:02.141Z,34.70
2019-04-01T22:49:37.840Z,34.70
2019-04-01T22:52:13.898Z,34.70
2019-04-01T22:54:50.944Z,34.70
2019-04-01T22:57:27.707Z,34.70
2019-04-01T23:00:04.781Z,34.70
2019-04-01T23:02:42.223Z,34.70
2019-04-01T23:05:18.878Z,34.70
2019-04-01T23:07:55.641Z,34.70
2019-04-01T23:10:31.981Z,34.70
2019-04-01T23:13:08.944Z,34.70
2019-04-01T23:15:45.319Z,34.70
2019-04-01T23:18:22.624Z,34.70
2019-04-01T23:20:59.288Z,34.70
2019-04-01T23:23:35.680Z,34.70
2019-04-01T23:26:12.013Z,34.70
2019-04-01T23:28:49.317Z,34.80
2019-04-01T23:31:25.944Z,34.80
2019-04-01T23:34:02.937Z,34.80
2019-04-01T23:36:40.174Z,34.80
2019-04-01T23:39:17.750Z,34.90
2019-04-01T23:41:54.618Z,34.80
2019-04-01T23:44:31.342Z,34.90
2019-04-01T23:47:07.859Z,34.80
2019-04-01T23:49:44.340Z,34.80
2019-04-01T23:52:20.036Z,34.80
2019-04-01T23:54:56.447Z,34.80
2019-04-01T23:57:33.378Z,34.90
